Time,TemperatureF,DewpointF,PressureIn,WindDirection,WindDirectionDegrees,WindSpeedMPH,WindSpeedGustMPH,Humidity,HourlyPrecipIn,Conditions,Clouds,dailyrainin,SoftwareType,DateUTC
2013-11-13 00:13:00,29.0,18.0,30.28,NW,321,2.0,14.0,64,0.00,,,0.01,,2013-11-13 05:13:00,
2013-11-13 00:23:00,29.0,18.0,30.28,NNE,25,5.0,14.0,64,0.00,,,0.01,,2013-11-13 05:23:00,
2013-11-13 00:43:00,28.0,17.0,30.28,NNW,342,3.0,8.0,64,0.00,,,0.01,,2013-11-13 05:43:00,
2013-11-13 00:54:00,28.0,17.0,30.28,North,352,4.0,10.0,64,0.00,,,0.01,,2013-11-13 05:54:00,
2013-11-13 01:13:00,28.0,18.0,30.28,NE,34,4.0,9.0,65,0.00,,,0.01,,2013-11-13 06:13:00,
2013-11-13 01:23:00,28.0,18.0,30.28,North,349,2.0,8.0,65,0.00,,,0.01,,2013-11-13 06:23:00,
2013-11-13 01:42:00,28.0,18.0,30.28,WNW,297,2.0,10.0,66,0.00,,,0.01,,2013-11-13 06:42:00,
2013-11-13 01:52:00,28.0,18.0,30.28,NNW,338,4.0,10.0,66,0.00,,,0.01,,2013-11-13 06:52:00,
2013-11-13 02:11:00,28.0,18.0,30.28,NW,321,2.0,7.0,67,0.00,,,0.01,,2013-11-13 07:11:00,
2013-11-13 02:22:00,27.0,18.0,30.28,NNE,16,1.0,4.0,67,0.00,,,0.01,,2013-11-13 07:22:00,
2013-11-13 02:42:00,27.0,18.0,30.28,NNW,346,1.0,8.0,67,0.00,,,0.01,,2013-11-13 07:42:00,
2013-11-13 02:52:00,27.0,18.0,30.28,NE,34,2.0,11.0,67,0.00,,,0.01,,2013-11-13 07:52:00,
2013-11-13 03:12:00,28.0,19.0,30.28,West,262,2.0,10.0,68,0.00,,,0.01,,2013-11-13 08:12:00,
2013-11-13 03:22:00,28.0,19.0,30.27,NE,35,3.0,9.0,68,0.00,,,0.01,,2013-11-13 08:22:00,
2013-11-13 03:42:00,27.0,18.0,30.28,North,8,2.0,12.0,68,0.00,,,0.01,,2013-11-13 08:42:00,
2013-11-13 03:52:00,27.0,18.0,30.29,NNW,333,1.0,8.0,68,0.00,,,0.01,,2013-11-13 08:52:00,
2013-11-13 04:11:00,27.0,18.0,30.29,North,1,2.0,6.0,68,0.00,,,0.01,,2013-11-13 09:11:00,
2013-11-13 04:22:00,27.0,18.0,30.29,NW,317,2.0,9.0,68,0.00,,,0.01,,2013-11-13 09:22:00,
2013-11-13 04:43:00,27.0,18.0,30.29,NE,47,6.0,13.0,67,0.00,,,0.01,,2013-11-13 09:43:00,
2013-11-13 04:53:00,27.0,17.0,30.29,NE,39,4.0,12.0,65,0.00,,,0.01,,2013-11-13 09:53:00,
2013-11-13 05:13:00,26.0,16.0,30.30,NNW,345,2.0,9.0,64,0.00,,,0.01,,2013-11-13 10:13:00,
2013-11-13 05:23:00,26.0,14.0,30.30,North,353,6.0,12.0,61,0.00,,,0.01,,2013-11-13 10:23:00,
2013-11-13 05:42:00,26.0,14.0,30.30,North,355,3.0,9.0,61,0.00,,,0.01,,2013-11-13 10:42:00,
2013-11-13 05:52:00,26.0,14.0,30.30,North,11,5.0,15.0,60,0.00,,,0.01,,2013-11-13 10:52:00,
2013-11-13 06:12:00,26.0,14.0,30.30,North,11,7.0,22.0,59,0.00,,,0.01,,2013-11-13 11:12:00,
2013-11-13 06:22:00,26.0,14.0,30.31,NW,317,3.0,13.0,60,0.00,,,0.01,,2013-11-13 11:22:00,
2013-11-13 06:42:00,26.0,14.0,30.32,NNW,337,0.0,7.0,61,0.00,,,0.01,,2013-11-13 11:42:00,
2013-11-13 06:52:00,26.0,14.0,30.32,SE,132,0.0,8.0,61,0.00,,,0.01,,2013-11-13 11:52:00,
2013-11-13 07:12:00,26.0,15.0,30.33,NNW,335,1.0,4.0,62,0.00,,,0.01,,2013-11-13 12:12:00,
2013-11-13 07:22:00,26.0,15.0,30.34,NNE,16,2.0,6.0,62,0.00,,,0.00,,2013-11-13 12:22:00,
2013-11-13 07:42:00,26.0,14.0,30.35,ENE,68,5.0,10.0,61,0.00,,,0.00,,2013-11-13 12:42:00,
2013-11-13 07:52:00,26.0,14.0,30.35,NNW,339,5.0,12.0,60,0.00,,,0.00,,2013-11-13 12:52:00,
2013-11-13 08:11:00,27.0,15.0,30.36,NNW,344,6.0,20.0,59,0.00,,,0.00,,2013-11-13 13:11:00,
2013-11-13 08:22:00,27.0,14.0,30.36,NNW,342,7.0,16.0,58,0.00,,,0.00,,2013-11-13 13:22:00,
2013-11-13 08:42:00,27.0,14.0,30.37,NE,39,12.0,17.0,58,0.00,,,0.00,,2013-11-13 13:42:00,
2013-11-13 08:52:00,27.0,14.0,30.37,North,5,6.0,19.0,58,0.00,,,0.00,,2013-11-13 13:52:00,
2013-11-13 09:11:00,28.0,14.0,30.37,NNE,17,8.0,20.0,56,0.00,,,0.00,,2013-11-13 14:11:00,
2013-11-13 09:22:00,28.0,14.0,30.37,NNE,17,8.0,20.0,56,0.00,,,0.00,,2013-11-13 14:22:00,
2013-11-13 09:42:00,29.0,14.0,30.36,NNE,33,9.0,20.0,54,0.00,,,0.00,,2013-11-13 14:42:00,
2013-11-13 09:53:00,29.0,14.0,30.37,North,349,8.0,15.0,53,0.00,,,0.00,,2013-11-13 14:53:00,
2013-11-13 10:12:00,29.0,14.0,30.37,NE,51,9.0,19.0,52,0.00,,,0.00,,2013-11-13 15:12:00,
2013-11-13 10:22:00,30.0,14.0,30.37,NNW,347,5.0,15.0,50,0.00,,,0.00,,2013-11-13 15:22:00,
2013-11-13 10:43:00,30.0,13.0,30.36,NNW,347,7.0,17.0,49,0.00,,,0.00,,2013-11-13 15:43:00,
2013-11-13 10:53:00,31.0,14.0,30.36,NNE,12,6.0,13.0,49,0.00,,,0.00,,2013-11-13 15:53:00,
2013-11-13 11:13:00,31.0,14.0,30.35,NNW,329,9.0,18.0,48,0.00,,,0.00,,2013-11-13 16:13:00,
2013-11-13 11:23:00,32.0,13.0,30.35,WNW,289,7.0,19.0,45,0.00,,,0.00,,2013-11-13 16:23:00,
2013-11-13 11:43:00,32.0,13.0,30.35,NW,316,8.0,18.0,44,0.00,,,0.00,,2013-11-13 16:43:00,
2013-11-13 11:53:00,33.0,12.0,30.34,NNE,30,8.0,18.0,42,0.00,,,0.00,,2013-11-13 16:53:00,
2013-11-13 12:12:00,33.0,12.0,30.34,NNE,15,9.0,18.0,41,0.00,,,0.00,,2013-11-13 17:12:00,
2013-11-13 12:23:00,34.0,13.0,30.34,NW,313,6.0,15.0,42,0.00,,,0.00,,2013-11-13 17:23:00,
2013-11-13 12:42:00,34.0,12.0,30.33,North,349,9.0,19.0,39,0.00,,,0.00,,2013-11-13 17:42:00,
2013-11-13 12:52:00,35.0,11.0,30.33,NNW,336,10.0,19.0,37,0.00,,,0.00,,2013-11-13 17:52:00,
2013-11-13 13:12:00,35.0,11.0,30.33,NNW,331,7.0,16.0,36,0.00,,,0.00,,2013-11-13 18:12:00,
2013-11-13 13:23:00,35.0,10.0,30.32,NW,319,8.0,17.0,35,0.00,,,0.00,,2013-11-13 18:23:00,
2013-11-13 13:42:00,36.0,11.0,30.32,East,89,5.0,13.0,35,0.00,,,0.00,,2013-11-13 18:42:00,
2013-11-13 13:52:00,36.0,11.0,30.32,East,89,5.0,13.0,35,0.00,,,0.00,,2013-11-13 18:52:00,
2013-11-13 14:11:00,36.0,10.0,30.32,NW,317,6.0,16.0,34,0.00,,,0.00,,2013-11-13 19:11:00,
2013-11-13 14:21:00,36.0,10.0,30.31,NW,324,7.0,20.0,33,0.00,,,0.00,,2013-11-13 19:21:00,
2013-11-13 14:42:00,37.0,11.0,30.31,North,6,2.0,15.0,34,0.00,,,0.00,,2013-11-13 19:42:00,
2013-11-13 14:52:00,37.0,11.0,30.31,North,350,5.0,18.0,34,0.00,,,0.00,,2013-11-13 19:52:00,
2013-11-13 15:22:00,38.0,12.0,30.31,NW,321,4.0,11.0,34,0.00,,,0.00,,2013-11-13 20:22:00,
2013-11-13 15:42:00,37.0,12.0,30.32,North,8,3.0,12.0,35,0.00,,,0.00,,2013-11-13 20:42:00,
2013-11-13 15:52:00,37.0,12.0,30.31,NNW,330,5.0,14.0,35,0.00,,,0.00,,2013-11-13 20:52:00,
2013-11-13 16:12:00,37.0,12.0,30.31,NW,322,6.0,11.0,35,0.00,,,0.00,,2013-11-13 21:12:00,
2013-11-13 16:22:00,37.0,13.0,30.31,NNW,336,5.0,14.0,37,0.00,,,0.00,,2013-11-13 21:22:00,
2013-11-13 16:43:00,37.0,13.0,30.31,North,9,6.0,11.0,37,0.00,,,0.00,,2013-11-13 21:43:00,
2013-11-13 16:53:00,37.0,14.0,30.31,SW,235,4.0,11.0,39,0.00,,,0.00,,2013-11-13 21:53:00,
2013-11-13 17:13:00,36.0,15.0,30.31,NNW,333,2.0,10.0,41,0.00,,,0.00,,2013-11-13 22:13:00,
2013-11-13 17:23:00,35.0,14.0,30.32,NNW,327,1.0,4.0,42,0.00,,,0.00,,2013-11-13 22:23:00,
2013-11-13 17:42:00,35.0,15.0,30.32,WNW,293,0.0,3.0,43,0.00,,,0.00,,2013-11-13 22:42:00,
2013-11-13 17:53:00,34.0,14.0,30.33,NW,309,0.0,2.0,44,0.00,,,0.00,,2013-11-13 22:53:00,
2013-11-13 18:11:00,34.0,15.0,30.33,WNW,298,1.0,6.0,45,0.00,,,0.00,,2013-11-13 23:11:00,
2013-11-13 18:22:00,34.0,15.0,30.34,WSW,258,1.0,3.0,46,0.00,,,0.00,,2013-11-13 23:22:00,
2013-11-13 18:43:00,33.0,15.0,30.34,WNW,285,0.0,3.0,48,0.00,,,0.00,,2013-11-13 23:43:00,
2013-11-13 18:52:00,33.0,15.0,30.33,West,276,0.0,2.0,48,0.00,,,0.00,,2013-11-13 23:52:00,
2013-11-13 19:11:00,32.0,15.0,30.34,West,259,0.0,1.0,50,0.00,,,0.00,,2013-11-14 00:11:00,
2013-11-13 19:22:00,31.0,15.0,30.34,West,271,0.0,1.0,52,0.00,,,0.00,,2013-11-14 00:22:00,
2013-11-13 19:42:00,31.0,16.0,30.33,SW,226,0.0,1.0,54,0.00,,,0.00,,2013-11-14 00:42:00,
2013-11-13 19:52:00,31.0,16.0,30.33,West,266,0.0,1.0,53,0.00,,,0.00,,2013-11-14 00:52:00,
2013-11-13 20:11:00,31.0,17.0,30.33,West,259,0.0,1.0,55,0.00,,,0.00,,2013-11-14 01:11:00,
2013-11-13 20:22:00,30.0,17.0,30.33,SW,221,0.0,2.0,57,0.00,,,0.00,,2013-11-14 01:22:00,
2013-11-13 20:42:00,30.0,17.0,30.32,SSW,212,0.0,1.0,57,0.00,,,0.00,,2013-11-14 01:42:00,
2013-11-13 20:52:00,30.0,17.0,30.32,WSW,243,0.0,2.0,57,0.00,,,0.00,,2013-11-14 01:52:00,
2013-11-13 21:12:00,30.0,17.0,30.32,WSW,258,0.0,1.0,59,0.00,,,0.00,,2013-11-14 02:12:00,
2013-11-13 21:22:00,30.0,17.0,30.33,SW,236,0.0,1.0,59,0.00,,,0.00,,2013-11-14 02:22:00,
2013-11-13 22:12:00,30.0,17.0,30.31,West,265,0.0,3.0,58,0.00,,,0.00,,2013-11-14 03:12:00,
2013-11-13 22:21:00,30.0,17.0,30.30,West,266,1.0,5.0,57,0.00,,,0.00,,2013-11-14 03:21:00,
2013-11-13 22:44:00,30.0,17.0,30.30,WSW,246,1.0,4.0,58,0.00,,,0.00,,2013-11-14 03:44:00,
2013-11-13 22:54:00,30.0,17.0,30.29,WSW,253,0.0,5.0,58,0.00,,,0.00,,2013-11-14 03:54:00,
2013-11-13 23:14:00,30.0,17.0,30.28,WSW,242,1.0,6.0,58,0.00,,,0.00,,2013-11-14 04:14:00,
2013-11-13 23:24:00,30.0,17.0,30.28,South,186,1.0,5.0,59,0.00,,,0.00,,2013-11-14 04:24:00,
2013-11-13 23:43:00,30.0,18.0,30.27,SW,232,2.0,5.0,60,0.00,,,0.00,,2013-11-14 04:43:00,
2013-11-13 23:54:00,30.0,18.0,30.27,SW,215,0.0,3.0,60,0.00,,,0.00,,2013-11-14 04:54:00,